Time;durP1;ratioP1;P1;durP2;ratioP2;P2;SDS_P1;SDS_P2;PMS_P1;PMS_P2;Temp;Humidity;BMP_temperature;BMP_pressure;BME280_temperature;BME280_humidity;BME280_pressure;Samples;Min_cycle;Max_cycle;Signal;HPM_P1;HPM_P2
2023/12/17 00:00:05;;;;;;;6.67;3.80;;;;;;;9.44;100.00;102825.31;5055819;28;20440;-71
2023/12/17 00:02:32;;;;;;;12.27;4.77;;;;;;;9.48;100.00;102827.31;5055882;28;20464;-71
2023/12/17 00:04:59;;;;;;;7.93;3.80;;;;;;;9.45;100.00;102827.78;5055643;28;20469;-71
2023/12/17 00:07:25;;;;;;;8.10;4.10;;;;;;;9.38;100.00;102831.66;5055949;28;20533;-71
2023/12/17 00:09:52;;;;;;;6.63;3.37;;;;;;;9.37;100.00;102838.13;5055426;28;20868;-71
2023/12/17 00:12:18;;;;;;;7.80;3.43;;;;;;;9.33;100.00;102838.59;5055668;28;20445;-71
2023/12/17 00:14:45;;;;;;;8.27;3.93;;;;;;;9.35;100.00;102835.69;5055621;28;20494;-71
2023/12/17 00:17:13;;;;;;;9.80;3.70;;;;;;;9.35;100.00;102836.50;5055773;28;20439;-71
2023/12/17 00:19:40;;;;;;;6.30;3.57;;;;;;;9.38;100.00;102845.19;5055606;28;20588;-71
2023/12/17 00:22:07;;;;;;;6.30;3.30;;;;;;;9.40;100.00;102837.66;5056009;28;20473;-71
2023/12/17 00:24:33;;;;;;;6.87;4.03;;;;;;;9.35;100.00;102850.00;5055489;28;20553;-71
2023/12/17 00:27:00;;;;;;;10.70;4.83;;;;;;;9.34;100.00;102840.25;5055618;28;20528;-71
2023/12/17 00:29:27;;;;;;;7.23;3.17;;;;;;;9.37;100.00;102843.53;5055230;28;20464;-71
2023/12/17 00:31:53;;;;;;;10.27;4.50;;;;;;;9.34;100.00;102837.56;5055465;28;20446;-71
2023/12/17 00:34:21;;;;;;;8.90;3.63;;;;;;;9.44;100.00;102825.31;5055443;28;20549;-71
2023/12/17 00:36:48;;;;;;;8.93;4.10;;;;;;;9.43;100.00;102820.94;5054960;28;20442;-71
2023/12/17 00:39:14;;;;;;;8.23;3.23;;;;;;;9.37;100.00;102811.91;5055349;28;20568;-71
2023/12/17 00:41:41;;;;;;;8.83;2.93;;;;;;;9.40;100.00;102818.72;5055171;28;20521;-71
2023/12/17 00:44:07;;;;;;;7.37;3.50;;;;;;;9.41;100.00;102814.97;5055113;28;20496;-70
2023/12/17 00:46:34;;;;;;;6.87;3.33;;;;;;;9.43;100.00;102812.81;5055010;28;20967;-70
2023/12/17 00:49:01;;;;;;;8.13;3.27;;;;;;;9.43;100.00;102810.97;5054977;28;20438;-70
2023/12/17 00:51:29;;;;;;;6.90;3.00;;;;;;;9.40;100.00;102816.03;5055249;28;20525;-70
2023/12/17 00:53:55;;;;;;;9.00;4.33;;;;;;;9.39;100.00;102825.22;5055028;28;20547;-70
2023/12/17 00:56:22;;;;;;;6.97;3.90;;;;;;;9.41;100.00;102832.00;5054733;28;20448;-70
2023/12/17 00:58:48;;;;;;;6.60;2.80;;;;;;;9.43;100.00;102835.31;5055008;28;20573;-70
2023/12/17 01:01:15;;;;;;;8.53;3.80;;;;;;;9.50;100.00;102843.28;5054887;28;20889;-70
2023/12/17 01:03:42;;;;;;;10.27;4.47;;;;;;;9.47;100.00;102857.28;5054555;28;20494;-70
2023/12/17 01:06:09;;;;;;;5.37;2.87;;;;;;;9.46;100.00;102836.72;5054419;28;20513;-70
2023/12/17 01:08:36;;;;;;;6.60;3.47;;;;;;;9.44;100.00;102836.97;5054861;28;20450;-70
2023/12/17 01:11:03;;;;;;;7.50;3.60;;;;;;;9.48;100.00;102843.53;5054502;28;20446;-70
2023/12/17 01:13:30;;;;;;;8.13;3.47;;;;;;;9.49;100.00;102839.75;5054314;28;20478;-70
2023/12/17 01:15:56;;;;;;;6.30;2.97;;;;;;;9.47;100.00;102839.16;5054417;28;20537;-70
2023/12/17 01:18:23;;;;;;;8.80;2.80;;;;;;;9.49;100.00;102847.06;5054309;28;20483;-70
2023/12/17 01:20:50;;;;;;;10.77;3.27;;;;;;;9.45;100.00;102846.72;5054263;28;20519;-70
2023/12/17 01:23:16;;;;;;;6.97;2.87;;;;;;;9.47;100.00;102838.34;5054438;28;20530;-71
2023/12/17 01:25:44;;;;;;;6.47;3.17;;;;;;;9.47;100.00;102849.97;5054131;28;20498;-70
2023/12/17 01:28:11;;;;;;;9.10;3.70;;;;;;;9.44;100.00;102847.78;5054429;28;20434;-70
2023/12/17 01:30:37;;;;;;;8.10;2.93;;;;;;;9.39;100.00;102849.56;5054073;28;20446;-70
2023/12/17 01:33:04;;;;;;;4.90;2.50;;;;;;;9.41;100.00;102847.41;5054088;28;20441;-71
2023/12/17 01:35:31;;;;;;;6.90;3.53;;;;;;;9.42;100.00;102847.16;5054545;28;20462;-71
2023/12/17 01:37:58;;;;;;;10.63;4.40;;;;;;;9.41;100.00;102856.34;5053961;28;20445;-70
2023/12/17 01:40:24;;;;;;;9.03;3.17;;;;;;;9.48;100.00;102854.34;5053953;28;20529;-71
2023/12/17 01:42:54;;;;;;;5.67;2.90;;;;;;;9.52;100.00;102852.00;5053869;28;20443;-70
2023/12/17 01:45:20;;;;;;;10.40;3.50;;;;;;;9.51;100.00;102853.88;5053774;28;20485;-71
2023/12/17 01:47:47;;;;;;;6.73;3.30;;;;;;;9.46;100.00;102852.94;5054169;28;20529;-71
2023/12/17 01:50:13;;;;;;;6.47;2.73;;;;;;;9.46;100.00;102845.63;5054015;28;20441;-71
2023/12/17 01:52:41;;;;;;;6.70;3.10;;;;;;;9.50;100.00;102854.09;5053423;28;20868;-71
2023/12/17 01:55:09;;;;;;;7.70;3.60;;;;;;;9.51;100.00;102850.34;5053723;28;20469;-71
2023/12/17 01:57:36;;;;;;;5.50;2.80;;;;;;;9.53;100.00;102840.13;5053318;28;20964;-71
2023/12/17 02:00:05;;;;;;;8.70;3.30;;;;;;;9.48;100.00;102848.13;5053522;28;20486;-70
2023/12/17 02:02:32;;;;;;;5.70;2.83;;;;;;;9.56;100.00;102843.19;5054029;28;20784;-71
2023/12/17 02:04:58;;;;;;;8.33;3.50;;;;;;;9.56;100.00;102850.44;5053607;28;20549;-71
2023/12/17 02:07:25;;;;;;;5.70;3.20;;;;;;;9.54;100.00;102855.28;5052689;28;20489;-71
2023/12/17 02:09:51;;;;;;;6.67;3.17;;;;;;;9.50;100.00;102856.81;5053573;28;21008;-71
2023/12/17 02:12:25;;;;;;;8.13;3.57;;;;;;;9.47;100.00;102859.97;5053742;28;20442;-71
2023/12/17 02:14:51;;;;;;;10.97;3.47;;;;;;;9.50;100.00;102862.22;5053427;28;20466;-71
2023/12/17 02:17:25;;;;;;;7.07;3.03;;;;;;;9.53;100.00;102857.16;5053475;28;20452;-71
2023/12/17 02:19:51;;;;;;;5.80;3.17;;;;;;;9.54;100.00;102858.00;5053609;28;20310;-71
2023/12/17 02:22:18;;;;;;;6.80;3.30;;;;;;;9.52;100.00;102854.72;5053708;28;20469;-71
2023/12/17 02:24:46;;;;;;;7.63;3.97;;;;;;;9.52;100.00;102852.00;5053030;28;20468;-70
2023/12/17 02:27:19;;;;;;;6.63;3.60;;;;;;;9.58;100.00;102861.88;5053570;28;20529;-70
2023/12/17 02:29:45;;;;;;;6.97;3.67;;;;;;;9.50;100.00;102862.22;5053024;28;20483;-70
2023/12/17 02:32:13;;;;;;;8.47;3.00;;;;;;;9.57;100.00;102862.94;5053795;28;20477;-70
2023/12/17 02:34:39;;;;;;;6.67;2.70;;;;;;;9.56;100.00;102862.13;5053266;28;20462;-70
2023/12/17 02:37:06;;;;;;;8.13;3.30;;;;;;;9.57;100.00;102863.75;5053396;28;20440;-70
2023/12/17 02:39:33;;;;;;;5.30;2.90;;;;;;;9.62;100.00;102871.16;5052830;28;20567;-70
2023/12/17 02:42:01;;;;;;;7.57;3.37;;;;;;;9.68;100.00;102853.94;5052920;28;20883;-71
2023/12/17 02:44:27;;;;;;;7.57;3.83;;;;;;;9.69;100.00;102846.66;5053115;28;20510;-70
2023/12/17 02:46:54;;;;;;;6.73;3.00;;;;;;;9.64;100.00;102846.56;5053090;28;20500;-71
2023/12/17 02:49:21;;;;;;;8.57;3.40;;;;;;;9.64;100.00;102844.66;5053271;28;20530;-71
2023/12/17 02:51:50;;;;;;;6.87;3.47;;;;;;;9.69;100.00;102836.66;5053820;28;20517;-71
2023/12/17 02:54:17;;;;;;;4.77;2.30;;;;;;;9.65;100.00;102840.91;5053221;28;20463;-71
2023/12/17 02:56:43;;;;;;;6.80;3.50;;;;;;;9.61;100.00;102839.75;5053102;28;20525;-71
2023/12/17 02:59:13;;;;;;;7.37;2.90;;;;;;;9.71;100.00;102842.66;5052994;28;20543;-71
2023/12/17 03:01:40;;;;;;;6.10;3.27;;;;;;;9.70;100.00;102848.31;5053330;28;20527;-71
2023/12/17 03:04:07;;;;;;;9.87;3.40;;;;;;;9.66;100.00;102852.56;5052990;28;20473;-71
2023/12/17 03:06:34;;;;;;;7.23;3.80;;;;;;;9.68;100.00;102845.84;5052969;28;20525;-71
2023/12/17 03:09:00;;;;;;;9.57;3.83;;;;;;;9.62;100.00;102840.56;5052637;28;20434;-71
2023/12/17 03:11:27;;;;;;;5.70;3.10;;;;;;;9.54;100.00;102847.97;5052966;28;20440;-71
2023/12/17 03:13:54;;;;;;;9.53;4.00;;;;;;;9.59;100.00;102845.38;5052768;28;20552;-71
2023/12/17 03:16:24;;;;;;;6.87;3.37;;;;;;;9.63;100.00;102837.63;5052878;28;20470;-71
2023/12/17 03:18:51;;;;;;;7.77;3.83;;;;;;;9.63;100.00;102839.50;5056236;28;20859;-71
2023/12/17 03:21:17;;;;;;;7.10;2.70;;;;;;;9.53;100.00;102829.28;5056170;28;20452;-71
2023/12/17 03:23:44;;;;;;;8.37;3.50;;;;;;;9.56;100.00;102828.78;5056139;28;20989;-71
2023/12/17 03:26:11;;;;;;;6.40;3.07;;;;;;;9.59;100.00;102831.03;5056504;28;20529;-71
2023/12/17 03:28:37;;;;;;;9.03;3.33;;;;;;;9.63;100.00;102832.22;5056608;28;20956;-71
2023/12/17 03:31:05;;;;;;;8.17;3.83;;;;;;;9.59;100.00;102834.56;5056472;28;20448;-71
2023/12/17 03:33:33;;;;;;;7.80;3.40;;;;;;;9.54;100.00;102834.47;5056264;28;20449;-71
2023/12/17 03:35:59;;;;;;;6.50;2.57;;;;;;;9.56;100.00;102828.78;5056314;28;20469;-71
2023/12/17 03:38:27;;;;;;;7.70;3.50;;;;;;;9.53;100.00;102830.13;5056253;28;20438;-71
2023/12/17 03:40:53;;;;;;;7.20;2.87;;;;;;;9.50;100.00;102827.88;5055848;28;20486;-71
2023/12/17 03:43:20;;;;;;;6.23;2.70;;;;;;;9.51;100.00;102829.50;5056080;28;20442;-71
2023/12/17 03:45:47;;;;;;;8.40;3.60;;;;;;;9.53;100.00;102826.59;5056252;28;20478;-71
2023/12/17 03:48:13;;;;;;;6.53;2.90;;;;;;;9.58;100.00;102837.50;5056028;28;20446;-71
2023/12/17 03:50:41;;;;;;;5.10;2.70;;;;;;;9.56;100.00;102835.06;5056019;28;20521;-71
2023/12/17 03:53:10;;;;;;;5.33;3.13;;;;;;;9.55;100.00;102830.69;5056131;28;20444;-70
2023/12/17 03:55:37;;;;;;;8.00;3.63;;;;;;;9.55;100.00;102836.09;5056433;28;20469;-71
2023/12/17 03:58:03;;;;;;;9.30;3.37;;;;;;;9.51;100.00;102850.34;5055590;28;21047;-71
2023/12/17 04:00:31;;;;;;;6.93;3.00;;;;;;;9.60;100.00;102840.78;5055994;28;20513;-71
2023/12/17 04:02:57;;;;;;;10.80;3.27;;;;;;;9.58;100.00;102842.94;5038809;28;20442;-71
2023/12/17 04:05:25;;;;;;;6.30;3.07;;;;;;;9.59;100.00;102841.84;5055984;28;20504;-71
2023/12/17 04:07:53;;;;;;;6.73;3.27;;;;;;;9.63;100.00;102832.22;5055450;28;20484;-71
2023/12/17 04:10:19;;;;;;;7.70;3.27;;;;;;;9.59;100.00;102828.31;5055784;28;20446;-71
2023/12/17 04:12:46;;;;;;;4.73;2.13;;;;;;;9.58;100.00;102834.81;5055679;28;20462;-71
2023/12/17 04:15:14;;;;;;;9.67;4.00;;;;;;;9.50;100.00;102827.88;5055583;28;20494;-71
2023/12/17 04:17:41;;;;;;;7.17;2.43;;;;;;;9.58;100.00;102827.50;5055500;28;20430;-71
2023/12/17 04:20:08;;;;;;;6.97;2.87;;;;;;;9.64;100.00;102824.91;5055253;28;20575;-71
2023/12/17 04:22:35;;;;;;;9.40;3.03;;;;;;;9.60;100.00;102819.16;5055514;28;20525;-71
2023/12/17 04:25:03;;;;;;;7.40;3.90;;;;;;;9.59;100.00;102817.50;5055332;28;20549;-71
2023/12/17 04:27:30;;;;;;;7.47;3.73;;;;;;;9.68;100.00;102817.97;5055336;28;20442;-71
2023/12/17 04:29:56;;;;;;;9.80;3.87;;;;;;;9.70;100.00;102824.78;5054645;28;20446;-71
2023/12/17 04:32:23;;;;;;;9.47;3.50;;;;;;;9.66;100.00;102812.78;5055818;28;20444;-71
2023/12/17 04:34:50;;;;;;;7.20;3.10;;;;;;;9.67;100.00;102819.84;5055524;28;20466;-71
2023/12/17 04:37:16;;;;;;;7.93;3.20;;;;;;;9.72;100.00;102816.41;5054852;28;20458;-71
2023/12/17 04:39:43;;;;;;;6.37;3.37;;;;;;;9.71;100.00;102822.91;5055354;28;20496;-71
2023/12/17 04:42:11;;;;;;;9.67;3.70;;;;;;;9.74;100.00;102828.66;5055487;28;20526;-71
2023/12/17 04:44:37;;;;;;;5.23;2.77;;;;;;;9.75;100.00;102827.59;5054620;28;20909;-71
2023/12/17 04:47:05;;;;;;;7.70;3.07;;;;;;;9.75;100.00;102822.19;5055473;28;20521;-69
2023/12/17 04:49:31;;;;;;;7.57;3.80;;;;;;;9.83;100.00;102831.81;5054605;28;21013;-71
2023/12/17 04:51:58;;;;;;;7.07;3.20;;;;;;;9.80;100.00;102819.56;5054855;28;20443;-71
2023/12/17 04:54:25;;;;;;;7.63;3.57;;;;;;;9.79;100.00;102823.34;5055204;28;20541;-71
2023/12/17 04:56:54;;;;;;;5.80;2.73;;;;;;;9.78;100.00;102826.28;5054787;28;20533;-70
2023/12/17 04:59:22;;;;;;;6.47;2.40;;;;;;;9.77;100.00;102825.44;5055108;28;20486;-70
2023/12/17 05:01:49;;;;;;;5.30;2.87;;;;;;;9.80;100.00;102829.56;5054687;28;20872;-70
2023/12/17 05:04:17;;;;;;;7.07;3.20;;;;;;;9.85;100.00;102830.50;5054787;28;20538;-70
2023/12/17 05:06:43;;;;;;;4.90;2.40;;;;;;;9.86;100.00;102824.00;5054568;28;20884;-71
2023/12/17 05:09:10;;;;;;;6.57;3.33;;;;;;;9.84;100.00;102820.72;5054598;28;20434;-70
2023/12/17 05:11:37;;;;;;;6.70;2.40;;;;;;;9.84;100.00;102818.03;5054807;28;20438;-70
2023/12/17 05:14:03;;;;;;;5.87;3.20;;;;;;;9.79;100.00;102819.81;5054384;28;20465;-70
2023/12/17 05:16:31;;;;;;;4.80;2.27;;;;;;;9.79;100.00;102815.22;5054536;28;20529;-71
2023/12/17 05:18:58;;;;;;;5.63;2.70;;;;;;;9.79;100.00;102809.81;5054094;28;20533;-71
2023/12/17 05:21:25;;;;;;;6.73;3.47;;;;;;;9.77;100.00;102808.41;5054088;28;20566;-70
2023/12/17 05:23:51;;;;;;;7.60;3.80;;;;;;;9.78;100.00;102816.28;5054869;28;20494;-70
2023/12/17 05:26:18;;;;;;;5.67;2.40;;;;;;;9.85;100.00;102822.38;5054687;28;20440;-70
2023/12/17 05:28:44;;;;;;;7.40;3.47;;;;;;;9.90;100.00;102812.72;5054167;28;20438;-70
2023/12/17 05:31:11;;;;;;;9.33;3.50;;;;;;;9.84;100.00;102809.91;5054166;28;20472;-70
2023/12/17 05:33:39;;;;;;;7.20;3.20;;;;;;;9.83;100.00;102805.56;5053804;28;20897;-70
2023/12/17 05:36:06;;;;;;;5.50;2.57;;;;;;;9.81;100.00;102807.66;5054105;28;20438;-70
2023/12/17 05:38:33;;;;;;;7.20;3.50;;;;;;;9.84;100.00;102804.50;5054383;28;20517;-70
2023/12/17 05:40:59;;;;;;;8.90;2.90;;;;;;;9.86;100.00;102815.88;5054503;28;20508;-70
2023/12/17 05:43:26;;;;;;;9.33;3.50;;;;;;;9.83;100.00;102820.97;5054404;28;20450;-70
2023/12/17 05:45:53;;;;;;;7.80;3.13;;;;;;;9.84;100.00;102820.72;5053873;28;20862;-70
2023/12/17 05:48:19;;;;;;;7.70;4.23;;;;;;;9.82;100.00;102822.03;5053568;28;20530;-70
2023/12/17 05:50:47;;;;;;;5.63;3.17;;;;;;;9.81;100.00;102818.50;5054139;28;20517;-70
2023/12/17 05:53:14;;;;;;;9.20;3.97;;;;;;;9.80;100.00;102811.44;5053645;28;20442;-70
2023/12/17 05:55:41;;;;;;;6.27;2.50;;;;;;;9.81;100.00;102815.78;5054023;28;20466;-70
2023/12/17 05:58:08;;;;;;;7.87;3.53;;;;;;;9.76;100.00;102818.41;5054338;28;20452;-70
2023/12/17 06:00:34;;;;;;;7.07;2.90;;;;;;;9.79;100.00;102817.94;5053559;28;20551;-70
2023/12/17 06:03:01;;;;;;;6.27;2.53;;;;;;;9.78;100.00;102819.00;5054126;28;20525;-70
2023/12/17 06:05:27;;;;;;;8.60;3.57;;;;;;;9.80;100.00;102833.09;5053823;28;20544;-71
2023/12/17 06:07:55;;;;;;;9.13;3.97;;;;;;;9.82;100.00;102830.97;5053620;28;20510;-71
2023/12/17 06:10:22;;;;;;;4.97;2.27;;;;;;;9.84;100.00;102831.56;5053455;28;20481;-71
2023/12/17 06:12:48;;;;;;;7.10;3.50;;;;;;;9.81;100.00;102836.63;5053216;28;20884;-71
2023/12/17 06:15:15;;;;;;;8.80;3.30;;;;;;;9.83;100.00;102829.09;5053085;28;20995;-71
2023/12/17 06:17:42;;;;;;;5.37;2.50;;;;;;;9.81;100.00;102815.78;5053718;28;20442;-71
2023/12/17 06:20:10;;;;;;;5.20;2.40;;;;;;;9.83;100.00;102819.09;5053078;28;20989;-71
2023/12/17 06:22:37;;;;;;;7.40;3.37;;;;;;;9.88;100.00;102814.84;5053031;28;20453;-71
2023/12/17 06:25:05;;;;;;;4.07;2.10;;;;;;;9.89;100.00;102816.47;5052984;28;20913;-71
2023/12/17 06:27:34;;;;;;;6.53;2.43;;;;;;;9.89;100.00;102811.06;5053378;28;20442;-71
2023/12/17 06:30:01;;;;;;;7.00;3.10;;;;;;;9.91;100.00;102814.34;5053389;28;20930;-71
2023/12/17 06:32:27;;;;;;;7.50;2.97;;;;;;;9.91;100.00;102812.47;5053227;28;20548;-71
2023/12/17 06:34:54;;;;;;;6.53;2.90;;;;;;;9.88;100.00;102804.84;5053481;28;20813;-71
2023/12/17 06:37:20;;;;;;;5.70;3.10;;;;;;;9.86;100.00;102806.94;5053885;28;20521;-71
2023/12/17 06:39:47;;;;;;;5.40;2.33;;;;;;;9.91;100.00;102814.34;5053829;28;20485;-71
2023/12/17 06:42:15;;;;;;;6.40;2.90;;;;;;;9.85;100.00;102819.66;5052898;28;20896;-71
2023/12/17 06:44:41;;;;;;;4.60;1.97;;;;;;;9.83;100.00;102813.69;5053412;28;20462;-71
2023/12/17 06:47:08;;;;;;;5.87;2.63;;;;;;;9.79;100.00;102823.34;5053189;28;20525;-71
2023/12/17 06:49:37;;;;;;;5.37;1.97;;;;;;;9.83;100.00;102824.50;5052848;28;20872;-71
2023/12/17 06:52:04;;;;;;;9.20;3.20;;;;;;;9.83;100.00;102829.94;5053905;28;20437;-71
2023/12/17 06:54:31;;;;;;;6.43;3.37;;;;;;;9.82;100.00;102835.56;5057051;28;20490;-70
2023/12/17 06:56:57;;;;;;;6.00;3.00;;;;;;;9.78;100.00;102835.25;5057532;28;20476;-70
2023/12/17 06:59:25;;;;;;;6.80;2.87;;;;;;;9.79;100.00;102831.47;5057334;28;20442;-71
2023/12/17 07:01:52;;;;;;;6.67;2.47;;;;;;;9.84;100.00;102845.09;5056591;28;21025;-71
2023/12/17 07:04:19;;;;;;;4.03;1.83;;;;;;;9.91;100.00;102852.25;5056842;28;20556;-71
2023/12/17 07:06:46;;;;;;;9.90;3.50;;;;;;;9.89;100.00;102846.25;5056766;28;20446;-71
2023/12/17 07:09:13;;;;;;;7.27;2.87;;;;;;;9.94;100.00;102849.06;5056785;28;20446;-71
2023/12/17 07:11:40;;;;;;;6.57;2.50;;;;;;;9.90;100.00;102843.31;5056702;28;20513;-71
2023/12/17 07:14:07;;;;;;;4.00;2.10;;;;;;;9.92;100.00;102832.25;5056397;28;20466;-70
2023/12/17 07:16:36;;;;;;;5.23;1.97;;;;;;;9.88;100.00;102826.50;5056971;28;20938;-70
2023/12/17 07:19:03;;;;;;;7.90;2.30;;;;;;;9.86;100.00;102817.78;5056336;28;20519;-70
2023/12/17 07:21:30;;;;;;;8.37;3.13;;;;;;;9.89;100.00;102819.19;5070476;22;20552;-65
2023/12/17 07:23:57;;;;;;;7.50;2.87;;;;;;;9.85;100.00;102819.66;5056545;28;20533;-67
2023/12/17 07:26:24;;;;;;;4.90;2.47;;;;;;;9.83;100.00;102815.56;5056792;28;20537;-66
2023/12/17 07:28:50;;;;;;;5.07;1.97;;;;;;;9.88;100.00;102815.66;5056451;28;20452;-66
2023/12/17 07:31:17;;;;;;;7.43;3.37;;;;;;;9.88;100.00;102820.25;5056507;28;20518;-66
2023/12/17 07:33:45;;;;;;;4.27;2.10;;;;;;;9.87;100.00;102822.13;5056330;28;20548;-66
2023/12/17 07:36:12;;;;;;;4.83;2.23;;;;;;;9.90;100.00;102829.75;5056326;28;20442;-66
2023/12/17 07:38:38;;;;;;;4.47;1.97;;;;;;;9.95;100.00;102826.34;5056783;28;20473;-66
2023/12/17 07:41:05;;;;;;;3.73;1.90;;;;;;;9.95;100.00;102823.63;5056505;28;20477;-66
2023/12/17 07:43:32;;;;;;;6.40;2.40;;;;;;;9.96;100.00;102828.81;5056700;28;20445;-66
2023/12/17 07:45:58;;;;;;;4.93;2.30;;;;;;;9.91;100.00;102823.28;5055930;28;20524;-66
2023/12/17 07:48:25;;;;;;;4.30;1.90;;;;;;;9.91;100.00;102836.00;5056478;28;20478;-67
2023/12/17 07:50:54;;;;;;;6.90;2.70;;;;;;;9.91;100.00;102819.75;5055760;28;20445;-66
2023/12/17 07:53:21;;;;;;;4.87;2.37;;;;;;;9.92;100.00;102832.25;5055994;28;20476;-66
2023/12/17 07:55:48;;;;;;;8.00;2.70;;;;;;;9.93;100.00;102833.88;5056016;28;20442;-66
2023/12/17 07:58:15;;;;;;;4.83;2.20;;;;;;;9.96;100.00;102844.22;5055902;28;20515;-66
2023/12/17 08:00:42;;;;;;;4.73;2.27;;;;;;;9.97;100.00;102844.00;5055814;28;20855;-65
2023/12/17 08:03:08;;;;;;;5.03;2.47;;;;;;;9.97;100.00;102840.47;5055319;28;20529;-66
2023/12/17 08:05:35;;;;;;;4.77;2.03;;;;;;;9.99;100.00;102841.03;5055129;28;20455;-66
2023/12/17 08:08:03;;;;;;;4.07;1.93;;;;;;;10.03;100.00;102836.78;5055425;28;20529;-66
2023/12/17 08:10:30;;;;;;;4.33;1.90;;;;;;;10.06;99.97;102834.41;5055690;28;20449;-66
2023/12/17 08:12:57;;;;;;;4.57;1.80;;;;;;;10.10;99.31;102829.34;5056002;28;20474;-66
2023/12/17 08:15:23;;;;;;;6.93;3.03;;;;;;;10.07;99.71;102832.53;5055555;28;20974;-67
2023/12/17 08:17:50;;;;;;;5.77;2.03;;;;;;;10.09;99.30;102828.53;5055495;28;20961;-67
2023/12/17 08:20:17;;;;;;;4.80;2.03;;;;;;;10.06;99.70;102830.91;5055920;28;20454;-67
2023/12/17 08:22:44;;;;;;;5.20;2.50;;;;;;;10.06;99.67;102833.59;5055459;28;20470;-67
2023/12/17 08:25:12;;;;;;;4.40;1.90;;;;;;;10.14;98.67;102840.50;5055714;28;20494;-67
2023/12/17 08:27:38;;;;;;;5.30;2.10;;;;;;;10.08;99.35;102842.28;5055697;28;20521;-66
2023/12/17 08:30:06;;;;;;;5.23;1.73;;;;;;;10.10;99.57;102837.47;5055502;28;20778;-68
2023/12/17 08:32:33;;;;;;;4.43;2.13;;;;;;;10.09;99.34;102841.22;5055435;28;20467;-67
2023/12/17 08:35:00;;;;;;;5.17;2.60;;;;;;;10.17;98.47;102840.03;5055171;28;20489;-66
2023/12/17 08:37:28;;;;;;;7.43;3.30;;;;;;;10.19;98.46;102843.31;5055214;28;20440;-66
2023/12/17 08:39:55;;;;;;;4.90;2.07;;;;;;;10.16;98.06;102850.03;5055262;28;20446;-68
2023/12/17 08:42:23;;;;;;;4.73;2.23;;;;;;;10.13;98.33;102839.69;5055062;28;20572;-67
2023/12/17 08:44:50;;;;;;;4.40;1.93;;;;;;;10.14;98.45;102840.50;5054980;28;20836;-67
2023/12/17 08:47:16;;;;;;;3.90;1.40;;;;;;;10.19;97.60;102835.19;5055003;28;20470;-68
2023/12/17 08:49:43;;;;;;;5.00;2.40;;;;;;;10.14;98.24;102838.63;5055294;28;20466;-68
2023/12/17 08:52:10;;;;;;;5.77;2.70;;;;;;;10.14;98.35;102832.38;5055193;28;20439;-68
2023/12/17 08:54:36;;;;;;;5.20;2.27;;;;;;;10.13;98.30;102841.56;5055161;28;20458;-68
2023/12/17 08:57:03;;;;;;;5.30;2.30;;;;;;;10.16;98.47;102855.44;5054983;28;20474;-69
2023/12/17 08:59:31;;;;;;;5.50;2.50;;;;;;;10.21;97.73;102858.25;5054553;28;20985;-69
2023/12/17 09:01:58;;;;;;;3.70;1.77;;;;;;;10.25;97.63;102856.72;5054603;28;20490;-68
2023/12/17 09:04:24;;;;;;;5.67;2.40;;;;;;;10.21;97.50;102852.84;5054653;28;20476;-68
2023/12/17 09:06:52;;;;;;;5.47;2.50;;;;;;;10.27;97.41;102872.72;5054710;28;20555;-68
2023/12/17 09:09:18;;;;;;;5.33;2.80;;;;;;;10.24;97.31;102856.97;5054288;28;21022;-68
2023/12/17 09:11:45;;;;;;;4.83;2.00;;;;;;;10.27;96.91;102846.50;5054527;28;20465;-68
2023/12/17 09:14:11;;;;;;;6.80;2.10;;;;;;;10.21;97.68;102857.44;5054644;28;20465;-68
2023/12/17 09:16:38;;;;;;;8.13;2.53;;;;;;;10.32;96.72;102843.06;5054259;28;20897;-68
2023/12/17 09:19:05;;;;;;;3.67;1.83;;;;;;;10.28;96.46;102834.59;5054151;28;20664;-68
2023/12/17 09:21:32;;;;;;;4.23;1.60;;;;;;;10.25;97.04;102835.06;5053986;28;20577;-68
2023/12/17 09:23:58;;;;;;;5.53;2.87;;;;;;;10.26;96.61;102850.25;5054659;28;20458;-68
2023/12/17 09:26:25;;;;;;;5.63;2.40;;;;;;;10.26;96.68;102846.72;5054027;28;20525;-68
2023/12/17 09:28:51;;;;;;;4.37;2.10;;;;;;;10.27;96.61;102849.22;5054031;28;20922;-68
2023/12/17 09:31:18;;;;;;;4.77;2.23;;;;;;;10.33;95.92;102863.66;5054254;28;20529;-68
2023/12/17 09:33:46;;;;;;;4.00;2.07;;;;;;;10.35;95.93;102853.38;5053866;28;20470;-68
2023/12/17 09:36:13;;;;;;;3.33;1.73;;;;;;;10.40;95.68;102861.59;5054286;28;20454;-68
2023/12/17 09:38:42;;;;;;;4.57;1.60;;;;;;;10.42;95.45;102848.66;5053790;28;20474;-68
2023/12/17 09:41:09;;;;;;;4.67;2.60;;;;;;;10.46;94.82;102859.81;5053642;28;20997;-68
2023/12/17 09:43:36;;;;;;;6.80;2.57;;;;;;;10.50;94.61;102856.38;5053898;28;20464;-68
2023/12/17 09:46:02;;;;;;;5.00;1.73;;;;;;;10.50;94.83;102855.56;5053632;28;20438;-68
2023/12/17 09:48:29;;;;;;;3.60;1.80;;;;;;;10.56;94.06;102846.44;5054151;28;20454;-66
2023/12/17 09:50:57;;;;;;;4.47;1.87;;;;;;;10.53;94.45;102836.91;5054504;28;20529;-69
2023/12/17 09:53:24;;;;;;;4.60;2.27;;;;;;;10.54;93.89;102833.16;5054090;28;20624;-68
2023/12/17 09:55:50;;;;;;;4.63;2.07;;;;;;;10.52;93.95;102821.72;5053678;28;20435;-68
2023/12/17 09:58:17;;;;;;;6.80;2.40;;;;;;;10.54;94.09;102818.78;5053496;28;20964;-68
2023/12/17 10:00:44;;;;;;;4.00;1.70;;;;;;;10.55;94.88;102829.38;5053608;28;20474;-70
2023/12/17 10:03:13;;;;;;;3.93;2.10;;;;;;;10.59;93.59;102830.53;5053709;28;20875;-69
2023/12/17 10:05:40;;;;;;;4.53;2.40;;;;;;;10.60;93.98;102817.78;5053487;28;20512;-70
2023/12/17 10:08:08;;;;;;;3.97;1.70;;;;;;;10.53;94.57;102817.13;5053845;28;20431;-71
2023/12/17 10:10:35;;;;;;;4.60;1.83;;;;;;;10.55;94.36;102821.25;5053586;28;20441;-70
2023/12/17 10:13:02;;;;;;;6.30;3.10;;;;;;;10.54;94.80;102813.38;5053566;28;20529;-70
2023/12/17 10:15:35;;;;;;;8.03;3.60;;;;;;;10.65;93.87;102819.75;5053965;28;20549;-70
2023/12/17 10:18:02;;;;;;;3.90;1.77;;;;;;;10.69;93.68;102819.03;5053633;28;20789;-70
2023/12/17 10:20:28;;;;;;;5.63;2.30;;;;;;;10.64;93.81;102813.53;5053243;28;20821;-70
2023/12/17 10:23:03;;;;;;;5.10;2.40;;;;;;;10.56;94.35;102812.03;5053289;28;20477;-70
2023/12/17 10:25:31;;;;;;;6.07;2.47;;;;;;;10.54;94.76;102803.34;5053379;28;20468;-70
2023/12/17 10:27:58;;;;;;;3.77;1.80;;;;;;;10.59;94.51;102802.59;5052733;28;20449;-69
2023/12/17 10:30:31;;;;;;;5.23;2.60;;;;;;;10.51;94.98;102808.44;5053310;28;21012;-70
2023/12/17 10:33:00;;;;;;;4.70;2.03;;;;;;;10.48;95.76;102798.88;5053380;28;20942;-70
2023/12/17 10:35:28;;;;;;;4.30;1.73;;;;;;;10.53;95.40;102788.13;5053667;28;20462;-69
2023/12/17 10:37:58;;;;;;;4.47;2.27;;;;;;;10.53;95.49;102779.19;5053056;28;20445;-72
2023/12/17 10:40:26;;;;;;;5.17;2.23;;;;;;;10.51;95.11;102773.19;5053417;28;20458;-69
2023/12/17 10:42:56;;;;;;;5.90;1.67;;;;;;;10.52;95.25;102774.84;5052958;28;20486;-69
2023/12/17 10:45:23;;;;;;;4.50;2.20;;;;;;;10.57;94.76;102772.19;5053219;28;20497;-69
2023/12/17 10:47:52;;;;;;;4.50;2.10;;;;;;;10.56;95.21;102784.13;5053171;28;20469;-69
2023/12/17 10:50:19;;;;;;;5.10;2.40;;;;;;;10.57;94.77;102772.19;5053091;28;20492;-69
2023/12/17 10:52:47;;;;;;;5.80;2.70;;;;;;;10.58;94.59;102777.41;5053092;28;20522;-70
2023/12/17 10:55:15;;;;;;;3.77;1.63;;;;;;;10.64;94.35;102778.28;5053258;28;20453;-70
2023/12/17 10:57:46;;;;;;;4.90;2.13;;;;;;;10.64;94.66;102778.28;5053588;28;20517;-70
2023/12/17 11:00:18;;;;;;;3.40;1.73;;;;;;;10.66;94.79;102768.00;5053495;28;20434;-68
2023/12/17 11:02:47;;;;;;;5.17;2.07;;;;;;;10.66;94.59;102748.22;5052723;28;20994;-69
2023/12/17 11:05:14;;;;;;;4.57;2.40;;;;;;;10.66;94.16;102748.22;5052826;28;20550;-70
2023/12/17 11:07:41;;;;;;;7.33;2.33;;;;;;;10.60;95.09;102741.91;5052938;28;20525;-70
2023/12/17 11:10:10;;;;;;;3.70;1.70;;;;;;;10.66;94.43;102759.06;5052952;28;20453;-69
2023/12/17 11:12:37;;;;;;;5.40;2.77;;;;;;;10.55;94.65;102748.06;5053079;28;20903;-69
2023/12/17 11:15:05;;;;;;;4.20;1.73;;;;;;;10.59;94.48;102740.28;5052611;28;20458;-70
2023/12/17 11:17:33;;;;;;;6.00;2.50;;;;;;;10.61;94.43;102748.97;5052627;28;20944;-70
2023/12/17 11:20:01;;;;;;;3.60;1.47;;;;;;;10.61;94.85;102744.34;5052602;28;21000;-70
2023/12/17 11:22:30;;;;;;;5.53;2.50;;;;;;;10.63;94.84;102733.28;5052610;28;20481;-70